Terminal Aerodrome Forecast
Issued by NWS Boise, ID

Home | Current Version | Previous Version | Text Only | Print | Product List | Glossary On
Versions: 1 2 3 4 5 6 7 8 9 10 11 12 13 14 15 16 17 18
000
FTUS45 KBOI 061138
TAFBNO
TAF
KBNO 061138Z 0612/0712 VRB03KT P6SM VCFG BKN200
      TEMPO 0612/0615 1SM BR VV001
     FM061600 31013KT P6SM SCT050 BKN100
     FM062000 31010G20KT P6SM VCTS BKN050CB OVC100
     FM070000 34015G25KT P6SM -SHRA BKN050 OVC100 PROB30 0700/0704
      -TSRA OVC050CB
     FM070600 32010KT P6SM SCT050 BKN100=

USA.gov is the U.S. government's official web portal to all federal, state and local government web resources and services.